Time;durP1;ratioP1;P1;durP2;ratioP2;P2;SDS_P1;SDS_P2;PMS_P1;PMS_P2;Temp;Humidity;BMP_temperature;BMP_pressure;BME280_temperature;BME280_humidity;BME280_pressure;Samples;Min_cycle;Max_cycle;Signal;HPM_P1;HPM_P2
2021/12/31 00:01:29;;;;;;;2.20;1.88;;;12.80;96.90;;;;;;6288586;22;20188;-88
2021/12/31 00:03:56;;;;;;;3.15;1.58;;;12.90;97.50;;;;;;6287582;22;20204;-86
2021/12/31 00:06:25;;;;;;;15.77;13.27;;;12.90;97.10;;;;;;6261341;22;20175;-86
2021/12/31 00:08:52;;;;;;;5.72;5.13;;;12.80;97.30;;;;;;6287312;22;20249;-89
2021/12/31 00:11:20;;;;;;;10.70;8.30;;;12.80;97.30;;;;;;6236195;22;20179;-86
2021/12/31 00:13:47;;;;;;;18.13;14.25;;;12.80;97.20;;;;;;6289911;22;20564;-87
2021/12/31 00:16:17;;;;;;;1.63;1.52;;;12.70;97.20;;;;;;6289958;22;20223;-88
2021/12/31 00:18:44;;;;;;;1.30;1.20;;;12.60;97.20;;;;;;6289976;22;20192;-86
2021/12/31 00:21:35;;;;;;;1.45;1.35;;;12.50;97.40;;;;;;6290361;22;20208;-86
2021/12/31 00:24:02;;;;;;;2.13;1.95;;;12.50;97.60;;;;;;6286981;22;20234;-87
2021/12/31 00:26:29;;;;;;;3.22;2.92;;;12.50;98.10;;;;;;6262847;22;20283;-86
2021/12/31 00:28:56;;;;;;;11.07;9.35;;;12.60;97.70;;;;;;6261900;22;20197;-87
2021/12/31 00:31:23;;;;;;;1.85;1.63;;;12.60;97.60;;;;;;6290890;22;20164;-86
2021/12/31 00:33:51;;;;;;;1.77;1.55;;;12.60;97.30;;;;;;6262715;22;20196;-87
2021/12/31 00:37:10;;;;;;;5.53;4.82;;;12.60;97.40;;;;;;6290137;22;20156;-86
2021/12/31 00:39:38;;;;;;;1.52;1.40;;;12.70;97.40;;;;;;6290071;22;20184;-86
2021/12/31 00:45:41;;;;;;;1.67;1.58;;;12.50;97.50;;;;;;6290857;22;20200;-86
2021/12/31 00:48:10;;;;;;;1.40;1.30;;;12.50;97.50;;;;;;6290272;22;20463;-87
2021/12/31 00:50:38;;;;;;;1.65;1.30;;;12.50;97.20;;;;;;6262852;22;20173;-87
2021/12/31 00:53:05;;;;;;;4.63;4.07;;;12.60;97.00;;;;;;6290330;22;20206;-87
2021/12/31 00:55:34;;;;;;;2.30;1.60;;;12.60;97.20;;;;;;6291038;22;20261;-88
2021/12/31 00:58:01;;;;;;;4.72;4.15;;;12.70;96.40;;;;;;6290881;22;20236;-87
2021/12/31 01:00:29;;;;;;;5.88;3.63;;;12.80;96.40;;;;;;6263869;22;20227;-87
2021/12/31 01:02:56;;;;;;;3.38;2.75;;;12.80;96.40;;;;;;6291378;22;20177;-87
2021/12/31 01:05:29;;;;;;;3.38;2.13;;;12.80;96.40;;;;;;6263010;22;20200;-87
2021/12/31 01:07:56;;;;;;;6.95;5.25;;;12.80;96.40;;;;;;6238239;22;20168;-87
2021/12/31 01:10:26;;;;;;;1.50;1.13;;;12.80;96.40;;;;;;6249620;22;20230;-88
2021/12/31 01:12:55;;;;;;;2.40;2.03;;;12.60;96.30;;;;;;6263857;22;20172;-87
2021/12/31 01:15:36;;;;;;;5.25;3.13;;;12.50;96.70;;;;;;6290227;22;20203;-86
2021/12/31 01:18:21;;;;;;;4.55;4.00;;;12.60;96.90;;;;;;6291206;22;20188;-86
2021/12/31 01:20:50;;;;;;;0.88;0.77;;;12.70;96.70;;;;;;6290428;22;20184;-88
2021/12/31 01:23:22;;;;;;;1.80;1.70;;;12.60;96.50;;;;;;6289111;22;20165;-86
2021/12/31 01:29:38;;;;;;;3.00;2.17;;;12.60;96.70;;;;;;6261537;22;20192;-87
2021/12/31 01:32:08;;;;;;;2.10;1.70;;;12.40;97.10;;;;;;6283901;22;20172;-87
2021/12/31 01:34:45;;;;;;;5.07;3.42;;;12.40;97.20;;;;;;6288149;22;20223;-86
2021/12/31 01:40:51;;;;;;;4.22;3.60;;;12.50;97.10;;;;;;6171239;23;20191;-87
2021/12/31 01:57:28;;;;;;;3.10;2.65;;;12.60;96.90;;;;;;6197769;22;20150;-87
2021/12/31 01:59:56;;;;;;;1.17;1.02;;;12.60;96.80;;;;;;6194621;23;20188;-89
2021/12/31 05:14:05;;;;;;;1.35;1.25;;;11.20;98.60;;;;;;6284788;22;20207;-87
2021/12/31 05:16:37;;;;;;;1.30;1.20;;;11.00;99.00;;;;;;6286262;22;20267;-88
2021/12/31 05:19:04;;;;;;;1.50;1.40;;;10.90;99.20;;;;;;6286188;22;20279;-87
2021/12/31 05:21:31;;;;;;;1.45;1.35;;;10.70;99.60;;;;;;6259554;22;20169;-87
2021/12/31 05:23:59;;;;;;;1.58;1.20;;;10.70;99.90;;;;;;6285986;22;20211;-87
2021/12/31 05:26:26;;;;;;;1.40;1.30;;;10.60;99.90;;;;;;6287534;22;20208;-89
2021/12/31 05:28:53;;;;;;;1.48;1.25;;;10.70;99.90;;;;;;6259274;22;20192;-87
2021/12/31 05:31:21;;;;;;;1.13;1.10;;;10.60;99.90;;;;;;6286935;22;20549;-87
2021/12/31 05:33:49;;;;;;;3.10;1.20;;;10.50;99.90;;;;;;6234071;22;20192;-87
2021/12/31 05:36:16;;;;;;;2.95;1.20;;;10.40;99.90;;;;;;6287492;22;20204;-87
2021/12/31 05:42:09;;;;;;;1.10;1.10;;;10.20;99.90;;;;;;6288449;22;20187;-88
2021/12/31 05:44:36;;;;;;;1.40;1.20;;;10.40;99.90;;;;;;6260072;22;20247;-87
2021/12/31 05:47:06;;;;;;;1.83;1.38;;;10.50;99.90;;;;;;6287598;22;20659;-87
2021/12/31 05:49:45;;;;;;;1.60;1.02;;;10.50;99.90;;;;;;6286561;22;20203;-87
2021/12/31 05:55:35;;;;;;;1.40;1.30;;;10.40;99.90;;;;;;6287548;22;20231;-87
2021/12/31 05:58:20;;;;;;;3.08;1.33;;;10.50;99.90;;;;;;6287483;22;20263;-87
2021/12/31 06:00:47;;;;;;;2.10;1.10;;;10.60;99.90;;;;;;6287326;22;20208;-87
2021/12/31 06:03:16;;;;;;;1.35;1.05;;;10.70;99.90;;;;;;6286901;22;20577;-88
2021/12/31 06:05:43;;;;;;;2.05;1.20;;;10.60;99.70;;;;;;6260976;22;20173;-87
2021/12/31 06:08:11;;;;;;;1.02;1.00;;;10.70;99.70;;;;;;6286493;22;20251;-87
2021/12/31 06:10:41;;;;;;;1.40;1.30;;;10.70;99.70;;;;;;6258515;22;20247;-88
2021/12/31 06:19:07;;;;;;;1.10;1.10;;;10.80;99.30;;;;;;6285534;22;20204;-86
2021/12/31 06:21:37;;;;;;;1.90;1.23;;;10.80;99.10;;;;;;6303973;22;20235;-87
2021/12/31 06:24:04;;;;;;;1.60;1.30;;;10.80;98.90;;;;;;6291616;22;20282;-86
2021/12/31 06:26:31;;;;;;;1.27;1.17;;;10.80;98.50;;;;;;6318463;22;20272;-86
2021/12/31 06:28:59;;;;;;;1.30;1.20;;;10.70;98.50;;;;;;6316156;22;20206;-87
2021/12/31 06:31:26;;;;;;;1.38;1.27;;;10.60;98.90;;;;;;6318262;22;20533;-86
2021/12/31 06:33:54;;;;;;;1.38;1.27;;;10.60;99.50;;;;;;6318178;22;20283;-87
2021/12/31 06:36:23;;;;;;;1.17;1.10;;;10.70;99.50;;;;;;6318137;22;20195;-86
2021/12/31 06:38:51;;;;;;;1.48;1.10;;;10.70;99.30;;;;;;6291436;22;20192;-86
2021/12/31 06:44:50;;;;;;;1.10;1.10;;;10.40;99.00;;;;;;6317066;22;20160;-86
2021/12/31 06:48:14;;;;;;;1.52;1.30;;;10.30;99.50;;;;;;6319429;22;20213;-86
2021/12/31 06:51:09;;;;;;;1.08;1.00;;;10.40;99.90;;;;;;6318777;22;20172;-87
2021/12/31 06:53:38;;;;;;;1.40;1.30;;;10.50;99.90;;;;;;6318791;22;20243;-87
2021/12/31 06:56:05;;;;;;;2.92;1.27;;;10.70;99.60;;;;;;6291395;22;20215;-86
2021/12/31 06:58:33;;;;;;;1.00;1.00;;;10.80;99.40;;;;;;6290485;22;20207;-86
2021/12/31 07:01:06;;;;;;;1.48;1.20;;;10.70;99.30;;;;;;6318459;22;20183;-86
2021/12/31 07:03:33;;;;;;;1.88;1.23;;;10.70;98.80;;;;;;6317980;22;20204;-87
2021/12/31 07:06:00;;;;;;;1.10;1.00;;;10.50;99.00;;;;;;6317832;22;20246;-87
2021/12/31 07:08:27;;;;;;;1.30;1.20;;;10.60;99.50;;;;;;6317742;22;20202;-87
2021/12/31 07:10:56;;;;;;;1.15;1.08;;;10.40;99.10;;;;;;6291636;22;20207;-86
2021/12/31 07:13:24;;;;;;;1.50;1.40;;;10.30;99.10;;;;;;6317427;22;20179;-86
2021/12/31 08:28:20;;;;;;;1.55;1.45;;;10.50;98.70;;;;;;6277372;22;20193;-87
2021/12/31 08:30:48;;;;;;;2.08;1.25;;;10.80;97.90;;;;;;6258943;22;20232;-86
2021/12/31 08:40:08;;;;;;;2.15;1.38;;;12.40;94.20;;;;;;6291898;22;20243;-86
2021/12/31 08:42:36;;;;;;;1.60;1.50;;;12.90;92.00;;;;;;6288312;22;20616;-88
2021/12/31 08:45:06;;;;;;;1.98;1.30;;;13.20;91.90;;;;;;6282419;22;20647;-89
2021/12/31 08:47:33;;;;;;;1.30;1.20;;;13.60;90.80;;;;;;6282031;22;20555;-88
2021/12/31 08:50:00;;;;;;;1.80;1.30;;;13.60;89.20;;;;;;6279923;22;20245;-88
2021/12/31 08:52:27;;;;;;;1.60;1.27;;;13.90;87.60;;;;;;6253668;22;20255;-87
2021/12/31 08:54:54;;;;;;;1.70;1.30;;;14.10;86.20;;;;;;6281151;22;20204;-87
2021/12/31 08:57:21;;;;;;;1.17;1.05;;;14.50;83.30;;;;;;6282434;22;20171;-89
2021/12/31 08:59:48;;;;;;;1.40;1.30;;;14.70;81.40;;;;;;6283092;22;20231;-85
2021/12/31 09:02:17;;;;;;;1.40;1.30;;;15.20;77.40;;;;;;6283137;22;20539;-89
2021/12/31 09:04:44;;;;;;;2.17;1.10;;;15.60;76.70;;;;;;6280093;22;20231;-89
2021/12/31 09:07:11;;;;;;;2.10;1.35;;;16.20;70.10;;;;;;6255447;22;20255;-87
2021/12/31 09:09:38;;;;;;;1.50;1.40;;;17.00;61.30;;;;;;6282616;22;20280;-86
2021/12/31 09:12:06;;;;;;;2.03;1.42;;;17.50;56.70;;;;;;6283082;22;20251;-86
2021/12/31 09:14:33;;;;;;;1.40;1.30;;;18.00;54.10;;;;;;6279259;22;20271;-87
2021/12/31 09:17:00;;;;;;;1.58;1.40;;;18.30;50.00;;;;;;6281470;22;20184;-88
2021/12/31 09:19:29;;;;;;;1.52;1.27;;;18.60;46.70;;;;;;6256804;22;20201;-86
2021/12/31 09:21:57;;;;;;;1.48;1.38;;;19.00;45.80;;;;;;6284798;22;20585;-86
2021/12/31 09:24:24;;;;;;;1.50;1.40;;;19.30;45.90;;;;;;6277123;22;20204;-89
2021/12/31 09:26:51;;;;;;;1.80;1.58;;;18.90;45.60;;;;;;6251995;22;20208;-83
2021/12/31 09:29:20;;;;;;;3.38;1.60;;;18.50;45.90;;;;;;6283044;22;20497;-87
2021/12/31 09:31:47;;;;;;;1.75;1.63;;;18.10;46.20;;;;;;6281364;22;20248;-86
2021/12/31 09:34:15;;;;;;;1.42;1.33;;;17.40;49.40;;;;;;6280591;22;20223;-86
2021/12/31 09:36:44;;;;;;;1.30;1.20;;;16.70;52.90;;;;;;6285130;22;20183;-85
2021/12/31 09:39:11;;;;;;;1.40;1.30;;;16.80;56.10;;;;;;6282771;22;20196;-86
2021/12/31 09:41:38;;;;;;;1.70;1.60;;;17.80;53.90;;;;;;6280125;22;20176;-87
2021/12/31 09:44:05;;;;;;;1.90;1.40;;;18.70;49.70;;;;;;6277782;22;20211;-87
2021/12/31 09:46:35;;;;;;;2.00;1.30;;;19.60;44.90;;;;;;6276325;22;20168;-86
2021/12/31 09:49:02;;;;;;;1.40;1.20;;;20.00;42.80;;;;;;6279802;22;20209;-84
2021/12/31 09:51:29;;;;;;;2.50;1.38;;;19.70;40.80;;;;;;6280829;22;20244;-82
2021/12/31 09:53:59;;;;;;;1.45;1.25;;;19.20;42.40;;;;;;6278134;22;20233;-86
2021/12/31 09:56:28;;;;;;;2.28;1.40;;;18.50;44.40;;;;;;6279282;22;20173;-85
2021/12/31 09:58:55;;;;;;;1.40;1.30;;;18.20;47.00;;;;;;6279958;22;20210;-85
2021/12/31 10:01:22;;;;;;;2.28;1.35;;;17.80;49.40;;;;;;6281984;22;20238;-86
2021/12/31 10:03:57;;;;;;;1.58;1.40;;;17.30;53.40;;;;;;6282442;22;20192;-84
2021/12/31 10:06:25;;;;;;;1.58;1.40;;;17.70;53.80;;;;;;6278811;22;20168;-89
2021/12/31 10:08:56;;;;;;;1.42;1.27;;;17.40;52.20;;;;;;6276038;22;20569;-88
2021/12/31 10:11:25;;;;;;;1.40;1.30;;;16.90;57.30;;;;;;6251430;22;20451;-88
2021/12/31 10:13:55;;;;;;;1.42;1.33;;;16.40;59.40;;;;;;6279885;22;20200;-87
2021/12/31 10:16:25;;;;;;;4.82;1.58;;;16.10;66.80;;;;;;6280899;22;20193;-88
2021/12/31 10:19:05;;;;;;;2.13;1.35;;;15.70;68.60;;;;;;6280687;22;20246;-88
2021/12/31 10:21:38;;;;;;;2.38;1.20;;;15.50;75.60;;;;;;6280202;22;20169;-88
2021/12/31 10:24:23;;;;;;;1.20;1.08;;;15.80;69.60;;;;;;6280009;22;20508;-87
2021/12/31 10:26:53;;;;;;;1.85;1.20;;;16.20;65.60;;;;;;6252129;22;20678;-86
2021/12/31 10:29:21;;;;;;;1.50;1.40;;;15.90;68.80;;;;;;6253746;22;20197;-86
2021/12/31 10:31:51;;;;;;;1.38;1.20;;;15.90;69.60;;;;;;6282174;22;20255;-86
2021/12/31 10:34:36;;;;;;;1.00;1.00;;;15.70;73.40;;;;;;6255711;22;20216;-86
2021/12/31 10:37:14;;;;;;;1.48;1.15;;;16.10;65.90;;;;;;6282851;22;20156;-87
2021/12/31 10:39:41;;;;;;;3.80;1.20;;;16.40;64.40;;;;;;6282242;22;20263;-86
2021/12/31 10:42:11;;;;;;;2.30;1.10;;;16.40;61.50;;;;;;6283593;22;20632;-86
2021/12/31 10:44:46;;;;;;;1.70;1.30;;;16.80;59.80;;;;;;6282850;22;20192;-86
2021/12/31 10:47:15;;;;;;;1.20;1.10;;;16.90;60.70;;;;;;6256040;22;20176;-87
2021/12/31 10:50:16;;;;;;;1.17;1.08;;;17.60;54.90;;;;;;6280886;22;20275;-89
2021/12/31 10:52:56;;;;;;;1.33;1.17;;;18.00;54.10;;;;;;6282748;22;20237;-84
2021/12/31 10:55:27;;;;;;;1.30;1.20;;;18.30;51.40;;;;;;6281650;22;20250;-84
2021/12/31 10:57:58;;;;;;;1.30;1.20;;;18.90;44.50;;;;;;6282206;22;20525;-84
2021/12/31 11:00:28;;;;;;;3.08;1.20;;;19.00;43.10;;;;;;6286599;22;20459;-85
2021/12/31 11:02:57;;;;;;;1.40;1.30;;;19.20;40.60;;;;;;6298212;22;20227;-85
2021/12/31 11:05:25;;;;;;;2.80;1.40;;;19.30;40.50;;;;;;6280278;22;20192;-82
2021/12/31 11:07:54;;;;;;;1.20;1.10;;;19.40;38.70;;;;;;6281633;22;20173;-84
2021/12/31 11:10:26;;;;;;;1.30;1.20;;;18.90;40.70;;;;;;6281919;22;20204;-83
2021/12/31 11:12:56;;;;;;;1.30;1.20;;;18.70;42.20;;;;;;6280608;22;20159;-85
2021/12/31 11:15:23;;;;;;;1.13;1.00;;;18.00;42.80;;;;;;6282736;22;20525;-85
2021/12/31 11:17:52;;;;;;;1.63;1.10;;;17.20;48.50;;;;;;6282569;22;20193;-86
2021/12/31 11:20:22;;;;;;;0.90;0.90;;;16.80;53.00;;;;;;6281553;22;20201;-88
2021/12/31 11:22:51;;;;;;;0.98;0.98;;;16.40;57.80;;;;;;6280952;22;20165;-88
2021/12/31 11:25:26;;;;;;;0.80;0.80;;;16.10;59.00;;;;;;6281768;22;20208;-86
2021/12/31 11:27:57;;;;;;;1.10;1.00;;;16.00;61.00;;;;;;6284877;22;20183;-87
2021/12/31 11:30:31;;;;;;;0.75;0.75;;;15.70;63.00;;;;;;6257034;22;20197;-85
2021/12/31 11:33:01;;;;;;;0.98;0.90;;;15.60;65.00;;;;;;6255308;22;20168;-89
2021/12/31 11:35:36;;;;;;;1.08;0.90;;;15.40;68.10;;;;;;6275426;22;20196;-90
2021/12/31 11:38:05;;;;;;;0.80;0.80;;;15.10;69.40;;;;;;6275809;22;20470;-91
2021/12/31 11:40:33;;;;;;;1.10;1.00;;;15.10;69.10;;;;;;6274284;22;20200;-89
2021/12/31 11:43:20;;;;;;;1.92;0.80;;;15.00;67.50;;;;;;6275070;22;20196;-89
2021/12/31 11:46:25;;;;;;;0.93;0.93;;;15.00;69.60;;;;;;6277662;22;20230;-87
2021/12/31 11:48:57;;;;;;;2.20;0.85;;;15.10;68.30;;;;;;6282494;22;20243;-89
2021/12/31 11:51:28;;;;;;;1.20;1.10;;;14.90;69.70;;;;;;6282093;22;20247;-88
2021/12/31 11:54:19;;;;;;;1.25;0.90;;;14.90;71.90;;;;;;6281263;22;20218;-88
2021/12/31 11:56:59;;;;;;;1.20;1.10;;;14.90;70.40;;;;;;6281830;22;20239;-87
2021/12/31 11:59:46;;;;;;;1.33;1.23;;;14.90;69.50;;;;;;6283372;22;20231;-87
2021/12/31 12:02:17;;;;;;;1.17;0.95;;;14.80;69.60;;;;;;6284277;22;20184;-87
2021/12/31 12:04:46;;;;;;;0.88;0.80;;;14.90;66.90;;;;;;6283796;22;20227;-88
2021/12/31 12:07:33;;;;;;;1.00;0.80;;;14.80;68.40;;;;;;6285000;22;20529;-88
2021/12/31 12:10:29;;;;;;;1.08;0.60;;;14.80;66.80;;;;;;6285450;22;20226;-88
2021/12/31 12:13:18;;;;;;;1.77;0.90;;;14.80;63.30;;;;;;6287059;22;20521;-87
2021/12/31 12:15:47;;;;;;;0.80;0.80;;;14.80;67.50;;;;;;6285984;22;20214;-87
2021/12/31 12:18:14;;;;;;;1.48;1.00;;;14.80;66.20;;;;;;6283506;22;20299;-88
2021/12/31 12:20:45;;;;;;;2.42;0.90;;;14.80;66.60;;;;;;6284876;22;20192;-87
2021/12/31 12:23:23;;;;;;;1.48;1.20;;;14.80;63.50;;;;;;6285017;22;20171;-90
2021/12/31 12:25:51;;;;;;;1.10;1.00;;;14.80;65.90;;;;;;6282099;22;20182;-89
2021/12/31 12:28:21;;;;;;;1.05;0.95;;;14.80;61.50;;;;;;6280121;22;20251;-91
2021/12/31 12:31:04;;;;;;;1.00;0.90;;;14.90;62.30;;;;;;6281624;22;20167;-88
2021/12/31 12:33:31;;;;;;;2.08;1.33;;;14.90;64.30;;;;;;6279841;22;20157;-88
2021/12/31 12:36:01;;;;;;;1.45;1.10;;;14.90;62.60;;;;;;6280697;22;20268;-89
2021/12/31 12:38:33;;;;;;;2.33;1.25;;;14.90;62.60;;;;;;6279289;22;20172;-89
2021/12/31 12:41:02;;;;;;;3.50;1.13;;;14.90;62.70;;;;;;6280417;22;20177;-88
2021/12/31 12:43:32;;;;;;;1.38;1.27;;;14.90;61.70;;;;;;6279028;22;20176;-89
2021/12/31 12:46:02;;;;;;;1.00;1.00;;;14.80;60.60;;;;;;6279633;22;20191;-88
2021/12/31 12:48:31;;;;;;;1.30;0.80;;;15.00;51.40;;;;;;6281299;22;20172;-90
2021/12/31 12:50:59;;;;;;;0.82;0.82;;;15.10;51.50;;;;;;6281551;22;20589;-88
2021/12/31 12:53:27;;;;;;;1.35;1.20;;;15.20;51.60;;;;;;6279598;22;20165;-88
2021/12/31 12:56:06;;;;;;;1.15;1.00;;;15.20;51.50;;;;;;6282043;22;20472;-88
2021/12/31 12:58:36;;;;;;;2.78;1.25;;;15.20;51.50;;;;;;6280717;22;20167;-88
2021/12/31 13:01:06;;;;;;;3.42;1.10;;;15.10;53.00;;;;;;6281411;22;20196;-89
2021/12/31 13:03:46;;;;;;;1.38;1.27;;;15.20;51.60;;;;;;6280252;22;20185;-90
2021/12/31 13:06:14;;;;;;;1.23;1.10;;;15.10;53.60;;;;;;6254433;22;20591;-91
2021/12/31 13:08:41;;;;;;;1.20;1.10;;;15.10;53.80;;;;;;6279716;22;20272;-87
2021/12/31 13:11:08;;;;;;;4.45;1.00;;;15.00;53.80;;;;;;6281079;22;20255;-90
2021/12/31 13:13:37;;;;;;;2.13;1.77;;;15.00;51.40;;;;;;6280032;22;20248;-88
2021/12/31 13:16:07;;;;;;;2.00;0.80;;;15.00;51.40;;;;;;6280781;22;20231;-88
2021/12/31 13:18:37;;;;;;;1.48;1.38;;;15.00;51.40;;;;;;6281018;22;20192;-88
2021/12/31 13:21:09;;;;;;;1.17;1.08;;;15.00;51.40;;;;;;6284275;22;20246;-87
2021/12/31 13:23:37;;;;;;;2.35;0.90;;;14.90;51.30;;;;;;6285556;22;20200;-88
2021/12/31 13:26:22;;;;;;;0.90;0.90;;;14.90;51.30;;;;;;6284880;22;20169;-87
2021/12/31 13:28:49;;;;;;;2.08;1.00;;;14.90;51.30;;;;;;6283331;22;20200;-88
2021/12/31 13:31:30;;;;;;;1.05;1.00;;;14.90;52.40;;;;;;6282791;22;20659;-88
2021/12/31 13:33:58;;;;;;;7.75;6.32;;;14.90;51.30;;;;;;6282506;22;20242;-88
2021/12/31 13:36:26;;;;;;;1.45;1.27;;;15.00;57.90;;;;;;6284651;22;20633;-88
2021/12/31 13:39:12;;;;;;;0.80;0.80;;;14.90;51.30;;;;;;6284389;22;20192;-88
2021/12/31 13:41:49;;;;;;;1.70;1.20;;;14.90;51.30;;;;;;6284625;22;20193;-88
2021/12/31 13:44:19;;;;;;;1.35;1.25;;;14.80;51.20;;;;;;6282284;22;20200;-88
2021/12/31 13:46:49;;;;;;;3.47;1.95;;;14.80;59.60;;;;;;6257749;22;20222;-88
2021/12/31 13:49:20;;;;;;;2.05;1.65;;;14.90;55.10;;;;;;6282871;22;20471;-89
2021/12/31 13:51:49;;;;;;;5.90;3.97;;;15.10;52.10;;;;;;6285461;22;20156;-88
2021/12/31 13:54:20;;;;;;;2.83;1.92;;;15.10;63.30;;;;;;6281285;22;20276;-88
2021/12/31 13:56:49;;;;;;;37.97;30.42;;;15.10;56.50;;;;;;6281622;22;20216;-88
2021/12/31 13:59:27;;;;;;;44.63;35.08;;;15.10;57.40;;;;;;6281130;22;20267;-89
2021/12/31 14:02:11;;;;;;;12.38;9.15;;;15.30;56.20;;;;;;6284760;22;20157;-89
2021/12/31 14:05:04;;;;;;;1.33;1.23;;;15.30;54.30;;;;;;6283792;22;20196;-87
2021/12/31 14:07:36;;;;;;;3.95;3.47;;;15.00;51.40;;;;;;6282004;22;20255;-88
2021/12/31 14:10:06;;;;;;;2.88;2.63;;;14.90;58.50;;;;;;6281173;22;20196;-88
2021/12/31 14:12:47;;;;;;;1.20;1.10;;;14.90;59.70;;;;;;6283155;22;20232;-88
2021/12/31 14:15:15;;;;;;;2.53;2.28;;;14.80;54.40;;;;;;6257373;22;20204;-88
2021/12/31 14:17:46;;;;;;;1.73;1.33;;;14.70;55.40;;;;;;6284812;22;20188;-89
2021/12/31 14:20:13;;;;;;;3.40;2.28;;;14.80;54.10;;;;;;6284782;22;20211;-89
2021/12/31 14:22:43;;;;;;;7.97;5.90;;;15.00;55.60;;;;;;6285125;22;20259;-87
2021/12/31 14:25:11;;;;;;;3.20;2.58;;;15.00;64.00;;;;;;6256735;22;20666;-87
2021/12/31 14:27:38;;;;;;;2.05;1.85;;;15.00;58.60;;;;;;6284955;22;20271;-87
2021/12/31 14:30:08;;;;;;;3.55;2.08;;;14.80;60.10;;;;;;6283584;22;20227;-87
2021/12/31 14:32:36;;;;;;;1.80;1.50;;;14.70;63.00;;;;;;6284334;22;20172;-88
2021/12/31 14:35:06;;;;;;;1.42;1.33;;;14.80;57.60;;;;;;6284506;22;20196;-87
2021/12/31 14:37:35;;;;;;;3.00;2.25;;;14.60;60.20;;;;;;6258301;22;20529;-87
2021/12/31 14:40:09;;;;;;;1.40;1.30;;;14.80;62.80;;;;;;6258150;22;20201;-87
2021/12/31 14:42:36;;;;;;;1.13;1.02;;;14.60;60.60;;;;;;6261435;22;20153;-87
2021/12/31 14:45:05;;;;;;;2.70;1.77;;;14.40;60.00;;;;;;6285125;22;20513;-88
2021/12/31 14:47:32;;;;;;;1.88;1.77;;;14.40;63.40;;;;;;6258363;22;20220;-87
2021/12/31 14:49:59;;;;;;;1.50;1.40;;;14.40;64.00;;;;;;6284620;22;20271;-88
2021/12/31 14:52:29;;;;;;;3.25;2.40;;;14.60;62.30;;;;;;6259931;22;20180;-88
2021/12/31 14:54:56;;;;;;;2.78;2.28;;;14.30;70.30;;;;;;6285680;22;20256;-87
2021/12/31 14:57:24;;;;;;;2.90;2.22;;;14.60;69.80;;;;;;6286500;22;20196;-89
2021/12/31 14:59:51;;;;;;;2.70;1.95;;;14.50;70.00;;;;;;6235742;22;20204;-87
2021/12/31 15:02:20;;;;;;;2.38;2.15;;;14.40;70.80;;;;;;6288153;22;20537;-87
2021/12/31 15:04:48;;;;;;;2.47;2.00;;;14.50;71.10;;;;;;6286366;22;20212;-87
2021/12/31 15:07:16;;;;;;;2.70;1.83;;;14.60;74.90;;;;;;6287271;22;20218;-87
2021/12/31 15:09:45;;;;;;;1.60;1.45;;;14.70;66.30;;;;;;6287770;22;20224;-88
2021/12/31 15:12:13;;;;;;;3.03;1.90;;;14.40;66.10;;;;;;6286946;22;20168;-88
2021/12/31 15:14:40;;;;;;;1.80;1.70;;;14.40;68.70;;;;;;6285119;22;20223;-87
2021/12/31 15:17:08;;;;;;;3.55;2.78;;;14.30;67.60;;;;;;6288869;22;20223;-87
2021/12/31 15:19:35;;;;;;;5.75;3.83;;;14.40;73.20;;;;;;6288897;22;20231;-87
2021/12/31 15:22:05;;;;;;;4.22;2.63;;;14.40;70.10;;;;;;6289159;22;20227;-87
2021/12/31 15:24:35;;;;;;;2.85;2.30;;;14.50;69.60;;;;;;6273409;22;20200;-87
2021/12/31 15:27:16;;;;;;;5.72;2.17;;;14.60;71.60;;;;;;6289479;22;20202;-87
2021/12/31 15:46:09;;;;;;;2.25;1.83;;;14.50;72.80;;;;;;6293831;22;20163;-87
2021/12/31 15:48:47;;;;;;;2.20;1.95;;;14.30;70.60;;;;;;6289365;22;20163;-87
2021/12/31 15:51:14;;;;;;;3.05;1.67;;;14.20;69.90;;;;;;6286502;22;20620;-87
2021/12/31 15:53:48;;;;;;;9.65;5.60;;;13.80;68.40;;;;;;6271013;22;20257;-87
2021/12/31 15:56:39;;;;;;;2.67;1.80;;;13.20;72.50;;;;;;6291171;22;20504;-87
2021/12/31 15:59:06;;;;;;;5.32;4.38;;;12.70;75.60;;;;;;6290627;22;20200;-87
2021/12/31 16:01:38;;;;;;;3.22;2.75;;;12.30;78.50;;;;;;6290438;22;20235;-88
2021/12/31 16:04:05;;;;;;;2.63;2.38;;;12.00;81.70;;;;;;6287154;22;20200;-87
2021/12/31 16:06:33;;;;;;;3.17;1.90;;;11.80;82.60;;;;;;6286762;22;20192;-87
2021/12/31 16:09:00;;;;;;;2.38;1.83;;;11.60;84.40;;;;;;6286714;22;20223;-88
2021/12/31 16:11:29;;;;;;;2.70;1.60;;;11.50;85.50;;;;;;6286290;22;20173;-89
2021/12/31 16:13:59;;;;;;;2.30;2.10;;;11.30;86.20;;;;;;6286464;22;20200;-87
2021/12/31 16:16:26;;;;;;;4.85;3.67;;;11.20;87.30;;;;;;6287162;22;20214;-88
2021/12/31 16:18:55;;;;;;;6.35;4.88;;;11.10;89.40;;;;;;6286084;22;20211;-87
2021/12/31 16:21:22;;;;;;;6.72;3.75;;;11.10;89.50;;;;;;6259660;22;20247;-87
2021/12/31 16:23:50;;;;;;;10.27;6.57;;;11.10;89.60;;;;;;6287018;22;20227;-88
2021/12/31 16:26:17;;;;;;;9.35;7.50;;;11.00;90.20;;;;;;6287939;22;20227;-87
2021/12/31 16:28:44;;;;;;;8.95;5.43;;;10.90;90.50;;;;;;6286339;22;20203;-87
2021/12/31 16:31:11;;;;;;;3.40;2.60;;;10.80;90.50;;;;;;6261107;22;20168;-87
2021/12/31 16:33:39;;;;;;;4.05;3.30;;;10.70;90.40;;;;;;6287542;22;20176;-87
2021/12/31 16:36:08;;;;;;;3.75;2.33;;;10.70;90.00;;;;;;6288891;22;20224;-87
2021/12/31 16:38:35;;;;;;;6.25;2.70;;;10.70;90.10;;;;;;6287853;22;20557;-87
2021/12/31 16:41:14;;;;;;;2.85;2.22;;;10.70;89.20;;;;;;6287919;22;20271;-87
2021/12/31 16:43:42;;;;;;;2.83;2.08;;;10.70;87.70;;;;;;6260981;22;20230;-87
2021/12/31 16:46:09;;;;;;;8.23;3.88;;;10.70;87.10;;;;;;6261551;22;20224;-87
2021/12/31 16:48:36;;;;;;;3.30;2.67;;;10.60;87.10;;;;;;6288255;22;20165;-88
2021/12/31 16:51:03;;;;;;;2.95;2.20;;;10.60;85.70;;;;;;6262888;22;20203;-87
2021/12/31 16:53:32;;;;;;;4.05;2.30;;;10.60;85.00;;;;;;6260627;22;20176;-87
2021/12/31 16:56:03;;;;;;;4.50;2.38;;;10.60;82.90;;;;;;6290060;22;20184;-87
2021/12/31 16:58:32;;;;;;;3.67;2.42;;;10.70;81.40;;;;;;6286972;22;20592;-87
2021/12/31 17:00:59;;;;;;;2.90;2.40;;;10.70;79.30;;;;;;6289813;22;20765;-87
2021/12/31 17:03:27;;;;;;;2.90;2.60;;;10.80;77.90;;;;;;6262719;22;20175;-88
2021/12/31 17:05:54;;;;;;;3.55;2.80;;;10.90;76.20;;;;;;6264586;22;20247;-86
2021/12/31 17:08:21;;;;;;;2.67;2.35;;;10.90;74.00;;;;;;6290289;22;20631;-86
2021/12/31 17:10:53;;;;;;;4.22;2.33;;;10.90;74.00;;;;;;6290943;22;20153;-87
2021/12/31 17:13:20;;;;;;;3.05;2.40;;;10.90;73.00;;;;;;6264328;22;20172;-86
2021/12/31 17:15:47;;;;;;;5.22;3.92;;;11.00;71.20;;;;;;6263921;22;20236;-87
2021/12/31 17:18:15;;;;;;;7.80;6.35;;;11.00;71.80;;;;;;6289963;22;20222;-86
2021/12/31 17:20:43;;;;;;;4.63;3.00;;;11.10;74.30;;;;;;6288601;22;20196;-87
2021/12/31 17:23:10;;;;;;;4.07;3.42;;;11.10;70.70;;;;;;6263720;22;20168;-86
2021/12/31 17:25:37;;;;;;;2.92;2.60;;;11.00;69.30;;;;;;6289124;22;20220;-86
2021/12/31 17:28:08;;;;;;;2.30;2.10;;;10.90;68.80;;;;;;6291310;22;20547;-86
2021/12/31 17:30:35;;;;;;;3.67;3.10;;;10.90;68.10;;;;;;6289526;22;20252;-87
2021/12/31 17:33:18;;;;;;;4.85;2.72;;;10.90;74.00;;;;;;6289680;22;20485;-87
2021/12/31 17:35:47;;;;;;;5.57;2.28;;;11.00;72.30;;;;;;6290476;22;20192;-86
2021/12/31 17:38:14;;;;;;;2.53;2.30;;;11.00;68.10;;;;;;6264503;22;20199;-86
2021/12/31 17:40:48;;;;;;;4.65;2.47;;;11.00;69.50;;;;;;6289698;22;20220;-87
2021/12/31 17:43:21;;;;;;;2.72;2.13;;;11.20;66.70;;;;;;6291581;22;20164;-86
2021/12/31 17:45:48;;;;;;;5.03;2.63;;;11.30;63.60;;;;;;6279568;22;20632;-90
2021/12/31 17:52:08;;;;;;;3.28;2.33;;;11.10;63.80;;;;;;6290896;22;20302;-89
2021/12/31 17:54:36;;;;;;;5.00;2.60;;;11.00;64.70;;;;;;6291219;22;20165;-89
2021/12/31 17:57:06;;;;;;;3.10;2.42;;;10.90;66.20;;;;;;6282440;22;20168;-91
2021/12/31 17:59:36;;;;;;;2.65;2.38;;;10.80;65.00;;;;;;6253829;22;20200;-89
2021/12/31 18:02:03;;;;;;;3.55;2.50;;;10.90;64.00;;;;;;6255983;22;20207;-89
2021/12/31 18:04:54;;;;;;;3.05;2.35;;;10.90;63.80;;;;;;6281121;22;20204;-89
2021/12/31 18:07:21;;;;;;;5.22;3.33;;;10.90;61.10;;;;;;6256209;22;20236;-89
2021/12/31 18:09:49;;;;;;;3.15;2.30;;;11.00;63.10;;;;;;6283363;22;20519;-87
2021/12/31 18:12:18;;;;;;;2.13;1.90;;;11.10;58.30;;;;;;6289391;22;20164;-88
2021/12/31 18:14:47;;;;;;;3.47;2.38;;;11.20;57.10;;;;;;6284479;22;20655;-88
2021/12/31 18:19:49;;;;;;;5.25;4.75;;;11.20;56.50;;;;;;6281932;22;20200;-87
2021/12/31 18:22:17;;;;;;;6.05;5.25;;;11.10;56.30;;;;;;6289496;22;20574;-87
2021/12/31 18:24:45;;;;;;;5.13;3.55;;;11.10;56.60;;;;;;6287307;22;20204;-87
2021/12/31 18:27:13;;;;;;;3.67;2.55;;;11.10;55.80;;;;;;6288572;22;20251;-87
2021/12/31 18:29:43;;;;;;;2.78;2.35;;;11.10;55.90;;;;;;6287630;22;20224;-87
2021/12/31 18:32:12;;;;;;;3.35;2.75;;;11.10;55.80;;;;;;6288878;22;20163;-86
2021/12/31 18:34:40;;;;;;;4.40;2.97;;;11.10;55.20;;;;;;6260478;22;20199;-87
2021/12/31 18:37:07;;;;;;;2.90;2.45;;;11.10;54.70;;;;;;6288662;22;20616;-87
2021/12/31 18:39:34;;;;;;;2.42;2.08;;;11.20;54.70;;;;;;6285882;22;20208;-87